Time;durP1;ratioP1;P1;durP2;ratioP2;P2;SDS_P1;SDS_P2;PMS_P1;PMS_P2;Temp;Humidity;BMP_temperature;BMP_pressure;BME280_temperature;BME280_humidity;BME280_pressure;Samples;Min_cycle;Max_cycle;Signal;HPM_P1;HPM_P2
2022/03/24 00:00:44;;;;;;;30.70;9.93;;;;;;;6.01;61.47;102341.13;5981204;29;20427;-71
2022/03/24 00:03:40;;;;;;;24.17;9.80;;;;;;;5.92;60.67;102340.63;5980672;29;21781;-72
2022/03/24 00:06:35;;;;;;;25.93;9.83;;;;;;;5.83;60.72;102335.81;5976769;28;20035;-74
2022/03/24 00:09:30;;;;;;;24.93;8.77;;;;;;;5.85;60.52;102338.38;5974158;29;20042;-71
2022/03/24 00:12:27;;;;;;;25.05;9.27;;;;;;;5.92;60.77;102335.34;5981556;28;20038;-72
2022/03/24 00:15:23;;;;;;;29.23;10.10;;;;;;;5.79;59.86;102334.22;5980199;28;20383;-71
2022/03/24 00:18:18;;;;;;;31.48;9.82;;;;;;;5.57;60.18;102328.31;5984911;28;20019;-73
2022/03/24 00:21:16;;;;;;;24.35;9.43;;;;;;;5.51;61.72;102333.88;6005741;28;20074;-72
2022/03/24 00:24:11;;;;;;;26.92;10.13;;;;;;;5.58;62.27;102334.44;5992656;28;20090;-75
2022/03/24 00:27:07;;;;;;;27.85;9.82;;;;;;;5.53;61.97;102334.66;5982439;29;20039;-72
2022/03/24 00:30:03;;;;;;;27.33;9.03;;;;;;;5.06;63.24;102336.03;5981445;29;20066;-69
2022/03/24 00:32:58;;;;;;;26.60;9.23;;;;;;;4.89;63.64;102328.94;5981112;29;20049;-71
2022/03/24 00:35:54;;;;;;;22.70;9.23;;;;;;;4.65;64.65;102325.63;5972581;29;20043;-73
2022/03/24 00:38:52;;;;;;;27.20;9.82;;;;;;;4.42;64.80;102327.56;5981403;29;20035;-70
2022/03/24 00:41:48;;;;;;;22.92;8.73;;;;;;;4.58;65.84;102331.22;5981083;28;20070;-74
2022/03/24 00:44:44;;;;;;;20.50;9.32;;;;;;;4.50;65.67;102326.31;5972973;29;20031;-70
2022/03/24 00:47:43;;;;;;;26.55;10.85;;;;;;;4.33;66.61;102328.81;5981656;29;20217;-71
2022/03/24 00:50:38;;;;;;;22.58;9.55;;;;;;;4.10;66.18;102316.69;5981584;29;20046;-71
2022/03/24 00:53:34;;;;;;;30.60;10.27;;;;;;;3.84;67.39;102323.94;5975547;29;20455;-72
2022/03/24 00:56:29;;;;;;;30.00;10.87;;;;;;;3.51;68.13;102324.41;5975442;29;20035;-70
2022/03/24 00:59:24;;;;;;;27.60;10.17;;;;;;;3.66;68.78;102319.47;5980732;29;20042;-72
2022/03/24 01:02:20;;;;;;;24.42;9.57;;;;;;;3.68;69.19;102322.88;5981608;29;20046;-70
2022/03/24 01:05:16;;;;;;;26.13;8.63;;;;;;;4.03;69.91;102319.63;5977762;28;20402;-72
2022/03/24 01:08:13;;;;;;;27.98;9.32;;;;;;;4.03;68.93;102315.25;5981217;28;20031;-71
2022/03/24 01:11:08;;;;;;;25.83;10.40;;;;;;;4.22;68.60;102320.56;5990736;28;20505;-69
2022/03/24 01:14:05;;;;;;;27.17;10.27;;;;;;;3.91;68.49;102309.66;5993281;28;20035;-72
2022/03/24 01:17:02;;;;;;;25.60;10.07;;;;;;;3.47;68.40;102311.50;5986489;28;20402;-72
2022/03/24 01:19:57;;;;;;;31.75;9.82;;;;;;;3.09;69.48;102320.84;5979772;28;20032;-68
2022/03/24 01:22:53;;;;;;;24.50;10.37;;;;;;;2.97;69.81;102319.53;5979494;29;20067;-71
2022/03/24 01:25:49;;;;;;;31.15;10.00;;;;;;;2.96;70.60;102320.44;5976926;29;20039;-72
2022/03/24 01:28:44;;;;;;;29.33;10.60;;;;;;;3.43;71.63;102318.63;5976205;28;20054;-70
2022/03/24 01:31:42;;;;;;;26.02;10.63;;;;;;;3.42;69.54;102321.31;5979098;29;20050;-69
2022/03/24 01:34:38;;;;;;;29.88;9.93;;;;;;;2.99;69.86;102314.22;5969158;29;20054;-72
2022/03/24 01:37:34;;;;;;;25.77;10.10;;;;;;;2.90;70.52;102310.22;5976964;28;20488;-70
2022/03/24 01:40:30;;;;;;;31.40;10.27;;;;;;;3.41;72.30;102299.47;5972701;29;20035;-73
2022/03/24 01:43:25;;;;;;;31.30;10.73;;;;;;;3.70;70.67;102311.41;5976801;28;20083;-69
2022/03/24 01:46:23;;;;;;;30.05;9.70;;;;;;;3.66;69.29;102308.97;5977602;28;20031;-72
2022/03/24 01:49:18;;;;;;;24.73;9.73;;;;;;;3.64;70.40;102319.53;5975032;28;20054;-70
2022/03/24 01:52:15;;;;;;;28.20;9.90;;;;;;;3.53;68.99;102311.25;5976160;28;20479;-72
2022/03/24 01:55:13;;;;;;;26.90;10.40;;;;;;;3.58;69.83;102306.66;5983218;28;20022;-71
2022/03/24 01:58:09;;;;;;;32.60;9.77;;;;;;;3.44;69.53;102309.84;5979499;28;20035;-70
2022/03/24 02:01:27;;;;;;;26.73;10.95;;;;;;;3.07;69.76;102314.81;6002198;28;20063;-70
2022/03/24 02:04:23;;;;;;;25.60;9.20;;;;;;;3.11;70.41;102300.69;5988332;28;20039;-73
2022/03/24 02:07:18;;;;;;;28.70;9.80;;;;;;;2.79;70.64;102299.28;5980546;29;20090;-72
2022/03/24 02:10:14;;;;;;;23.27;9.55;;;;;;;2.71;71.52;102303.09;5967694;29;20497;-70
2022/03/24 02:13:09;;;;;;;25.90;9.13;;;;;;;2.49;72.11;102289.09;5996085;28;20031;-72
2022/03/24 02:16:11;;;;;;;28.10;9.23;;;;;;;2.98;71.29;102297.69;5980578;29;20046;-71
2022/03/24 02:19:17;;;;;;;26.20;10.02;;;;;;;3.35;72.63;102296.22;5979598;29;20035;-71
2022/03/24 02:22:13;;;;;;;31.48;10.50;;;;;;;3.03;70.75;102297.50;5979606;29;20035;-71
2022/03/24 02:25:09;;;;;;;25.48;9.70;;;;;;;3.12;71.90;102285.81;5975624;29;20038;-71
2022/03/24 02:28:04;;;;;;;29.17;10.82;;;;;;;2.72;72.02;102283.84;5991584;28;20528;-69
2022/03/24 02:31:00;;;;;;;28.87;10.63;;;;;;;2.34;72.53;102293.97;5972645;29;20044;-71
2022/03/24 02:34:37;;;;;;;29.87;9.93;;;;;;;2.36;72.91;102300.00;5982414;28;20042;-73
2022/03/24 02:37:12;;;;;;;31.27;9.48;;;;;;;2.20;74.05;102293.59;6003057;28;20027;-72
2022/03/24 02:40:09;;;;;;;33.25;10.40;;;;;;;2.10;73.29;102299.19;5971019;28;20028;-70
2022/03/24 02:43:05;;;;;;;26.75;10.40;;;;;;;1.89;74.63;102286.88;5974640;29;20035;-70
2022/03/24 02:46:00;;;;;;;36.33;10.90;;;;;;;2.57;74.70;102287.03;5972325;29;20035;-72
2022/03/24 02:48:55;;;;;;;24.60;10.03;;;;;;;2.81;75.64;102292.22;5975059;28;20043;-69
2022/03/24 02:51:52;;;;;;;30.03;11.53;;;;;;;2.55;72.69;102296.72;5978964;29;20081;-70
2022/03/24 02:54:47;;;;;;;32.53;10.48;;;;;;;2.72;74.39;102286.47;5973846;29;20043;-72
2022/03/24 02:57:43;;;;;;;30.15;11.98;;;;;;;3.02;74.26;102289.72;5974451;29;20446;-70
2022/03/24 03:00:39;;;;;;;24.50;10.48;;;;;;;2.79;72.79;102288.81;5973134;29;20039;-69
2022/03/24 03:03:34;;;;;;;32.78;10.73;;;;;;;2.27;72.70;102294.25;5975481;29;20054;-70
2022/03/24 03:06:29;;;;;;;26.77;10.47;;;;;;;2.13;73.41;102299.09;5978438;28;20041;-71
2022/03/24 03:09:25;;;;;;;29.00;11.20;;;;;;;2.31;73.85;102288.84;5979523;29;20508;-71
2022/03/24 03:12:20;;;;;;;23.77;9.87;;;;;;;2.26;74.44;102287.28;5978388;29;20039;-72
2022/03/24 03:15:15;;;;;;;26.63;10.27;;;;;;;2.84;75.05;102296.50;5979199;29;20743;-71
2022/03/24 03:18:11;;;;;;;25.90;10.20;;;;;;;2.79;73.60;102295.81;5970968;29;20062;-71
2022/03/24 03:21:06;;;;;;;28.15;11.23;;;;;;;2.94;73.48;102298.69;5966978;29;20023;-71
2022/03/24 03:24:03;;;;;;;26.00;10.13;;;;;;;2.42;73.53;102291.06;5978688;29;20039;-72
2022/03/24 03:26:59;;;;;;;23.42;9.40;;;;;;;2.75;74.28;102292.44;5998794;28;20039;-69
2022/03/24 03:29:56;;;;;;;24.77;9.43;;;;;;;2.69;73.19;102300.53;5981186;28;20514;-71
2022/03/24 03:32:51;;;;;;;27.67;10.07;;;;;;;2.58;74.05;102288.75;5978792;28;20035;-71
2022/03/24 03:35:46;;;;;;;27.53;9.83;;;;;;;2.60;74.07;102292.16;5979071;29;20035;-71
2022/03/24 03:38:41;;;;;;;28.35;10.75;;;;;;;2.39;73.92;102292.03;5971152;29;20118;-69
2022/03/24 03:41:39;;;;;;;24.70;9.90;;;;;;;2.59;74.30;102295.69;5975789;29;20036;-73
2022/03/24 03:44:34;;;;;;;25.83;9.63;;;;;;;2.67;74.25;102288.41;5983351;28;20054;-70
2022/03/24 03:47:30;;;;;;;25.95;10.65;;;;;;;2.48;72.83;102293.47;5989879;28;20053;-71
2022/03/24 03:50:25;;;;;;;23.20;9.37;;;;;;;2.21;73.76;102295.31;5970630;28;20091;-72
2022/03/24 03:53:21;;;;;;;29.37;10.27;;;;;;;1.88;74.20;102291.22;5975646;29;20039;-69
2022/03/24 03:56:17;;;;;;;26.67;10.55;;;;;;;2.30;75.14;102299.38;5976290;29;20034;-71
2022/03/24 03:59:12;;;;;;;27.27;9.93;;;;;;;2.35;74.81;102300.91;5977407;29;20380;-70
2022/03/24 04:02:07;;;;;;;24.73;9.53;;;;;;;2.29;73.88;102295.88;5978091;29;20031;-71
2022/03/24 04:05:05;;;;;;;25.17;9.97;;;;;;;2.32;73.37;102298.41;5976771;28;20183;-71
2022/03/24 04:08:01;;;;;;;27.42;10.43;;;;;;;2.39;73.50;102299.06;5975895;28;20042;-71
2022/03/24 04:10:56;;;;;;;28.33;10.68;;;;;;;2.46;74.08;102294.44;5977847;29;20063;-70
2022/03/24 04:13:53;;;;;;;26.25;9.35;;;;;;;2.48;74.70;102292.59;5967066;28;20482;-71
2022/03/24 04:16:49;;;;;;;31.45;10.27;;;;;;;2.44;74.12;102291.03;6004699;28;20087;-70
2022/03/24 04:19:44;;;;;;;27.37;9.73;;;;;;;2.40;73.87;102298.13;5979192;28;20436;-71
2022/03/24 04:22:39;;;;;;;27.80;10.50;;;;;;;2.40;73.74;102290.28;5970714;29;20127;-70
2022/03/24 04:25:35;;;;;;;40.23;11.80;;;;;;;2.39;74.14;102289.41;5987708;28;20649;-71
2022/03/24 04:28:31;;;;;;;28.33;10.10;;;;;;;2.40;73.90;102296.38;6000650;28;20035;-70
2022/03/24 04:31:26;;;;;;;30.00;10.25;;;;;;;2.27;74.48;102296.84;5977678;29;20494;-69
2022/03/24 04:34:21;;;;;;;34.27;11.60;;;;;;;2.37;74.54;102291.25;5982510;29;20494;-72
2022/03/24 04:37:16;;;;;;;30.80;9.60;;;;;;;2.27;74.00;102289.00;5982445;29;20031;-69
2022/03/24 04:40:15;;;;;;;29.43;11.83;;;;;;;2.33;74.28;102291.41;5973691;29;20036;-71
2022/03/24 04:43:11;;;;;;;26.88;11.25;;;;;;;2.33;74.43;102289.66;5979388;29;20086;-69
2022/03/24 04:46:06;;;;;;;30.20;10.25;;;;;;;2.34;73.51;102282.63;5982176;29;20450;-72
2022/03/24 04:49:02;;;;;;;27.90;11.37;;;;;;;2.24;74.00;102289.09;5976984;28;20039;-70
2022/03/24 04:51:57;;;;;;;35.17;11.35;;;;;;;2.00;73.74;102277.75;5981787;29;20035;-70
2022/03/24 04:54:53;;;;;;;33.08;10.68;;;;;;;2.05;75.03;102278.44;5981730;29;20145;-72
2022/03/24 04:57:48;;;;;;;29.60;10.93;;;;;;;1.84;74.11;102279.19;5973523;29;20379;-72
2022/03/24 05:00:43;;;;;;;25.23;11.20;;;;;;;2.10;75.32;102286.97;5975511;29;20042;-72
2022/03/24 05:03:39;;;;;;;31.07;10.73;;;;;;;1.82;75.77;102286.22;5975951;29;20031;-70
2022/03/24 05:06:34;;;;;;;34.27;11.90;;;;;;;1.81;75.95;102279.28;5975707;28;20031;-69
2022/03/24 05:09:29;;;;;;;32.78;10.32;;;;;;;1.77;75.53;102285.50;5981009;28;20443;-72
2022/03/24 05:12:25;;;;;;;32.90;11.20;;;;;;;1.82;75.49;102290.59;5980970;29;20036;-71
2022/03/24 05:15:20;;;;;;;31.23;11.00;;;;;;;2.05;75.16;102283.66;5980592;29;20410;-72
2022/03/24 05:18:16;;;;;;;33.60;11.48;;;;;;;1.64;74.93;102294.66;5988364;28;20030;-69
2022/03/24 05:21:12;;;;;;;28.10;11.73;;;;;;;1.62;74.90;102288.66;5997572;28;20098;-72
2022/03/24 05:24:07;;;;;;;31.27;11.43;;;;;;;1.82;75.49;102291.47;5999421;28;20038;-69
2022/03/24 05:27:03;;;;;;;28.83;10.70;;;;;;;1.93;74.30;102285.88;5988500;28;20390;-69
2022/03/24 05:29:59;;;;;;;30.65;9.40;;;;;;;1.90;75.37;102289.44;5983775;28;20055;-69
2022/03/24 05:32:55;;;;;;;28.60;12.32;;;;;;;1.95;75.48;102287.53;5981361;29;20039;-70
2022/03/24 05:35:50;;;;;;;32.55;11.07;;;;;;;2.07;74.92;102292.31;5981565;29;20034;-71
2022/03/24 05:38:46;;;;;;;28.60;11.45;;;;;;;1.92;74.14;102292.84;5981123;29;20042;-70
2022/03/24 05:41:41;;;;;;;28.87;10.97;;;;;;;1.77;75.30;102293.34;5980298;29;20474;-72
2022/03/24 05:44:37;;;;;;;28.17;10.20;;;;;;;2.32;75.44;102292.31;5981037;29;20027;-72
2022/03/24 05:47:33;;;;;;;27.98;9.77;;;;;;;2.74;73.55;102295.13;5982409;28;20270;-72
2022/03/24 05:50:29;;;;;;;27.92;10.80;;;;;;;3.00;72.00;102293.22;5980579;29;20035;-72
2022/03/24 05:53:24;;;;;;;36.88;12.07;;;;;;;2.83;70.20;102292.16;5980964;29;20046;-70
2022/03/24 05:56:20;;;;;;;29.80;11.73;;;;;;;2.88;70.86;102298.09;5980870;29;20050;-69
2022/03/24 05:59:15;;;;;;;31.87;12.83;;;;;;;2.80;71.13;102294.91;5974026;28;20035;-70
2022/03/24 06:02:13;;;;;;;36.67;12.15;;;;;;;3.05;70.67;102295.66;5986780;28;20073;-69
2022/03/24 06:05:09;;;;;;;39.45;13.70;;;;;;;3.15;69.99;102291.81;5983789;28;20039;-70
2022/03/24 06:08:07;;;;;;;34.80;14.50;;;;;;;3.42;68.16;102295.94;5953176;28;20091;-70
2022/03/24 06:11:04;;;;;;;35.10;12.68;;;;;;;3.47;69.51;102301.84;5993771;28;20051;-68
2022/03/24 06:14:00;;;;;;;32.53;11.95;;;;;;;4.04;67.33;102284.63;5981007;28;20512;-71
2022/03/24 06:16:55;;;;;;;29.27;12.55;;;;;;;4.28;66.77;102288.78;5970135;28;20027;-71
2022/03/24 06:19:52;;;;;;;32.00;12.70;;;;;;;4.11;66.73;102294.78;5968745;28;20047;-73
2022/03/24 06:22:52;;;;;;;36.58;13.52;;;;;;;4.36;66.27;102291.06;5969596;29;20027;-71
2022/03/24 06:25:47;;;;;;;40.08;13.20;;;;;;;4.20;66.87;102293.53;5983915;28;20037;-71
2022/03/24 06:28:42;;;;;;;31.80;12.77;;;;;;;4.43;66.85;102292.53;5978208;28;20038;-71
2022/03/24 06:31:39;;;;;;;37.03;13.83;;;;;;;4.22;66.19;102303.03;5972348;28;20043;-71
2022/03/24 06:34:34;;;;;;;33.67;14.15;;;;;;;4.41;66.30;102300.47;5993939;28;20135;-70
2022/03/24 06:37:30;;;;;;;36.60;13.40;;;;;;;4.85;65.65;102301.09;5977754;28;20043;-70
2022/03/24 06:40:26;;;;;;;34.63;12.40;;;;;;;4.66;65.05;102305.47;5987815;28;20035;-72
2022/03/24 06:43:25;;;;;;;30.90;11.85;;;;;;;4.88;65.19;102308.84;5974332;28;20035;-71
2022/03/24 06:46:20;;;;;;;35.13;12.13;;;;;;;4.73;65.08;102310.38;5976622;28;20119;-70
2022/03/24 06:49:15;;;;;;;37.33;14.80;;;;;;;4.91;63.45;102305.22;5979419;29;20043;-70
2022/03/24 06:52:11;;;;;;;29.30;12.43;;;;;;;5.20;63.88;102312.59;5971949;28;20035;-70
2022/03/24 06:55:07;;;;;;;35.08;12.05;;;;;;;5.17;63.85;102318.00;6003240;28;20039;-69
2022/03/24 06:58:02;;;;;;;31.60;12.32;;;;;;;5.46;63.64;102306.97;5985298;28;20027;-71
2022/03/24 07:00:59;;;;;;;34.78;12.80;;;;;;;5.42;63.13;102318.53;5974150;28;20065;-71
2022/03/24 07:03:54;;;;;;;33.22;12.23;;;;;;;5.92;62.24;102305.56;5982232;28;20030;-70
2022/03/24 07:06:49;;;;;;;34.93;13.13;;;;;;;5.97;61.60;102312.31;5979795;28;20051;-70
2022/03/24 07:09:45;;;;;;;33.63;13.17;;;;;;;5.82;62.00;102305.13;5979707;29;20027;-70
2022/03/24 07:12:41;;;;;;;33.63;13.20;;;;;;;5.91;62.17;102317.03;5974132;29;20047;-70
2022/03/24 07:15:36;;;;;;;32.58;13.20;;;;;;;6.19;62.22;102317.34;5971516;29;20039;-71
2022/03/24 07:18:32;;;;;;;31.15;12.88;;;;;;;6.39;61.43;102318.91;5967599;28;20479;-71
2022/03/24 07:21:27;;;;;;;32.15;12.77;;;;;;;6.54;60.30;102323.41;5978222;29;20045;-71
2022/03/24 07:24:22;;;;;;;32.07;12.37;;;;;;;6.60;59.51;102323.91;5978669;29;20049;-68
2022/03/24 07:27:18;;;;;;;32.17;12.27;;;;;;;6.84;58.48;102321.78;5974549;29;20812;-72
2022/03/24 07:30:13;;;;;;;33.20;11.97;;;;;;;6.90;58.98;102318.78;5994252;28;20035;-72
2022/03/24 07:33:09;;;;;;;31.73;12.43;;;;;;;6.99;57.15;102320.94;5990549;28;20042;-71
2022/03/24 07:36:04;;;;;;;30.98;12.00;;;;;;;7.07;57.75;102329.28;5985307;28;20279;-72
2022/03/24 07:39:00;;;;;;;34.13;12.95;;;;;;;7.43;57.28;102330.81;6002632;28;20049;-71
2022/03/24 07:41:55;;;;;;;34.28;13.60;;;;;;;7.55;56.96;102327.50;5986818;28;20548;-71
2022/03/24 07:44:50;;;;;;;33.07;11.73;;;;;;;7.80;55.83;102326.00;5975117;28;20407;-71
2022/03/24 07:48:12;;;;;;;33.63;11.87;;;;;;;8.20;54.96;102316.59;5990103;28;20039;-70
2022/03/24 07:51:07;;;;;;;32.03;13.68;;;;;;;8.17;54.87;102315.94;5994912;28;20427;-71
2022/03/24 07:54:03;;;;;;;34.17;13.00;;;;;;;8.34;54.40;102324.56;5994473;28;20047;-71
2022/03/24 07:56:58;;;;;;;34.08;13.98;;;;;;;8.66;54.54;102329.72;5983014;28;20031;-70
2022/03/24 07:59:54;;;;;;;30.70;13.85;;;;;;;8.79;53.40;102322.72;6007037;28;20602;-72
2022/03/24 08:02:52;;;;;;;32.00;13.73;;;;;;;8.90;53.15;102326.41;5999579;28;20047;-69
2022/03/24 08:05:48;;;;;;;32.25;13.50;;;;;;;9.04;53.48;102338.75;5993136;28;20050;-71
2022/03/24 08:08:43;;;;;;;33.30;12.38;;;;;;;9.06;52.76;102331.56;5974289;28;20410;-72
2022/03/24 08:11:39;;;;;;;34.43;14.57;;;;;;;9.17;53.08;102334.41;5992489;28;20042;-70
2022/03/24 08:14:34;;;;;;;34.80;13.20;;;;;;;9.35;52.60;102333.22;5977346;28;20035;-72
2022/03/24 08:17:29;;;;;;;35.85;14.27;;;;;;;9.41;52.42;102327.53;5983269;28;20137;-69
2022/03/24 08:20:25;;;;;;;37.27;15.27;;;;;;;9.62;51.12;102335.88;5988988;28;20066;-71
2022/03/24 08:23:21;;;;;;;34.00;13.70;;;;;;;9.78;50.99;102338.38;5989032;28;20035;-73
2022/03/24 08:26:16;;;;;;;34.10;12.90;;;;;;;10.11;50.24;102338.78;5982714;29;20279;-71
2022/03/24 08:29:12;;;;;;;34.30;13.23;;;;;;;10.11;50.25;102338.78;5988579;28;20397;-72
2022/03/24 08:32:07;;;;;;;33.03;14.60;;;;;;;10.20;49.97;102340.84;5979092;28;20377;-72
2022/03/24 08:35:03;;;;;;;33.90;13.40;;;;;;;10.64;49.01;102332.50;5973316;29;20039;-70
2022/03/24 08:37:59;;;;;;;29.45;13.20;;;;;;;10.62;48.50;102342.38;5971691;29;20035;-72
2022/03/24 08:40:54;;;;;;;29.90;13.18;;;;;;;10.70;48.16;102348.84;5977814;29;20074;-70
2022/03/24 08:43:50;;;;;;;32.70;12.97;;;;;;;10.88;47.40;102341.41;5976537;29;20664;-72
2022/03/24 08:46:46;;;;;;;34.97;13.35;;;;;;;11.34;46.75;102344.28;5986133;28;20645;-71
2022/03/24 08:49:41;;;;;;;34.17;14.75;;;;;;;11.46;46.17;102338.09;5974910;29;20035;-72
2022/03/24 08:52:36;;;;;;;33.43;13.57;;;;;;;11.25;46.24;102347.63;5967011;28;20039;-72
2022/03/24 08:55:32;;;;;;;31.95;13.20;;;;;;;11.49;45.85;102348.50;5971147;29;20034;-72
2022/03/24 08:58:27;;;;;;;36.25;13.70;;;;;;;11.63;46.11;102345.66;5966779;28;20173;-72
2022/03/24 09:01:23;;;;;;;30.95;13.23;;;;;;;11.70;45.83;102348.75;5969161;28;20494;-70
2022/03/24 09:04:23;;;;;;;32.30;14.13;;;;;;;11.86;44.70;102342.19;5972068;28;20039;-72
2022/03/24 09:07:18;;;;;;;35.95;15.15;;;;;;;11.66;45.24;102348.09;5977522;29;20062;-71
2022/03/24 09:10:15;;;;;;;28.27;12.40;;;;;;;11.93;44.47;102348.72;5972674;29;20042;-72
2022/03/24 09:13:10;;;;;;;33.40;14.10;;;;;;;12.15;44.68;102347.97;5970843;29;20066;-71
2022/03/24 09:16:06;;;;;;;31.57;13.53;;;;;;;12.37;43.54;102342.72;5970315;29;20044;-72
2022/03/24 09:19:02;;;;;;;28.75;12.88;;;;;;;12.78;43.96;102349.28;5980934;28;20058;-72
2022/03/24 09:21:59;;;;;;;32.33;13.23;;;;;;;13.29;42.79;102342.53;5976803;29;20027;-72
2022/03/24 09:24:54;;;;;;;29.42;13.50;;;;;;;13.04;42.56;102348.94;5972868;28;20031;-70
2022/03/24 09:27:50;;;;;;;33.73;14.03;;;;;;;12.70;43.43;102344.56;5971978;28;20043;-71
2022/03/24 09:30:45;;;;;;;37.07;13.30;;;;;;;12.93;42.70;102346.31;5975584;29;20042;-73
2022/03/24 09:33:40;;;;;;;35.53;13.30;;;;;;;13.14;42.48;102346.44;5974202;28;20043;-72
2022/03/24 09:36:36;;;;;;;32.83;14.53;;;;;;;13.32;42.71;102341.44;5980703;29;20038;-73
2022/03/24 09:39:31;;;;;;;36.28;14.48;;;;;;;12.86;43.30;102344.22;5981195;29;20282;-70
2022/03/24 09:42:29;;;;;;;35.60;14.03;;;;;;;13.26;42.57;102337.47;5977068;28;20515;-70
2022/03/24 09:45:25;;;;;;;34.15;15.00;;;;;;;13.80;40.69;102342.78;5988095;28;20812;-72
2022/03/24 09:48:21;;;;;;;33.47;13.85;;;;;;;13.49;40.99;102333.78;5997209;28;20039;-70
2022/03/24 09:51:16;;;;;;;29.80;12.13;;;;;;;13.19;41.00;102340.72;5985499;28;20467;-71
2022/03/24 09:54:12;;;;;;;28.08;12.13;;;;;;;13.45;40.54;102336.81;5980808;29;20096;-73
2022/03/24 09:57:08;;;;;;;30.58;13.52;;;;;;;13.76;40.05;102336.00;5990809;28;20367;-72
2022/03/24 10:00:05;;;;;;;28.73;11.63;;;;;;;14.22;38.79;102332.97;5980509;29;20438;-71
2022/03/24 10:03:15;;;;;;;26.13;12.32;;;;;;;14.18;38.22;102329.75;5981693;28;20050;-70
2022/03/24 10:06:11;;;;;;;26.77;12.43;;;;;;;14.47;37.68;102323.78;5985381;28;20031;-73
2022/03/24 10:09:06;;;;;;;31.13;13.13;;;;;;;14.07;36.74;102332.47;5980715;29;20478;-71
2022/03/24 10:12:03;;;;;;;30.88;13.75;;;;;;;14.08;37.13;102331.47;5980258;28;20498;-72
2022/03/24 10:15:11;;;;;;;33.00;12.98;;;;;;;14.13;37.00;102331.13;5977076;28;20042;-71
2022/03/24 10:18:15;;;;;;;27.02;11.07;;;;;;;14.36;36.08;102323.84;5990378;28;20065;-73
2022/03/24 10:21:12;;;;;;;31.15;11.90;;;;;;;14.58;36.27;102337.03;5992585;28;20092;-72
2022/03/24 10:24:10;;;;;;;29.77;11.40;;;;;;;15.10;36.14;102328.84;5983540;28;20045;-72
2022/03/24 10:27:06;;;;;;;29.17;12.55;;;;;;;15.06;35.64;102330.09;5989701;28;20351;-72
2022/03/24 10:30:01;;;;;;;33.13;12.73;;;;;;;14.95;36.02;102332.03;5979217;29;20046;-73
2022/03/24 10:32:57;;;;;;;31.85;13.93;;;;;;;14.78;35.64;102320.16;5982341;28;20059;-71
2022/03/24 10:36:08;;;;;;;26.70;12.10;;;;;;;15.22;36.31;102327.75;5980148;29;20122;-71
2022/03/24 10:39:07;;;;;;;33.10;12.38;;;;;;;15.37;35.47;102323.72;5979643;29;20114;-71
2022/03/24 10:42:15;;;;;;;31.85;12.77;;;;;;;15.96;34.67;102318.31;5973441;28;20035;-70
2022/03/24 10:45:17;;;;;;;29.67;12.43;;;;;;;15.94;34.05;102311.41;5970692;28;20458;-72
2022/03/24 10:48:12;;;;;;;30.85;12.35;;;;;;;15.93;34.21;102310.56;5975873;29;20090;-71
2022/03/24 10:51:08;;;;;;;25.83;11.10;;;;;;;15.71;34.19;102310.03;5979099;28;20039;-71
2022/03/24 10:54:22;;;;;;;26.67;12.30;;;;;;;16.29;33.36;102306.28;5969948;28;20039;-74
2022/03/24 10:57:20;;;;;;;29.40;12.65;;;;;;;16.06;32.84;102297.72;5976824;29;20450;-71
2022/03/24 11:00:15;;;;;;;27.63;12.65;;;;;;;16.17;33.49;102295.91;5973977;29;20097;-73
2022/03/24 11:03:11;;;;;;;28.45;12.38;;;;;;;16.37;32.09;102298.38;5976391;29;20478;-72
2022/03/24 11:06:12;;;;;;;31.75;14.02;;;;;;;15.55;33.47;102299.84;5970196;28;20035;-70
2022/03/24 11:09:07;;;;;;;25.67;12.05;;;;;;;15.42;34.09;102305.44;5973683;28;20113;-72
2022/03/24 11:12:22;;;;;;;29.37;12.20;;;;;;;15.58;33.17;102298.72;5973874;29;20418;-71
2022/03/24 11:15:19;;;;;;;26.60;11.45;;;;;;;15.79;32.74;102299.47;5976295;29;20038;-73
2022/03/24 11:18:15;;;;;;;27.80;12.05;;;;;;;15.73;32.84;102300.88;5976331;29;20036;-71
2022/03/24 11:21:36;;;;;;;28.60;12.85;;;;;;;16.04;31.75;102299.72;5975659;29;20030;-73
2022/03/24 11:24:31;;;;;;;26.77;11.55;;;;;;;16.55;32.65;102291.31;5964786;29;20078;-73
2022/03/24 11:27:27;;;;;;;25.23;11.63;;;;;;;16.79;31.61;102292.66;5976079;29;20043;-74
2022/03/24 11:30:24;;;;;;;28.17;13.03;;;;;;;16.18;31.33;102298.41;5968533;29;20490;-73
2022/03/24 11:33:20;;;;;;;25.20;12.10;;;;;;;16.79;30.79;102285.47;5966984;29;20085;-73
2022/03/24 11:36:18;;;;;;;29.50;13.63;;;;;;;16.82;31.08;102284.31;5966643;29;20042;-73
2022/03/24 11:39:14;;;;;;;28.10;12.10;;;;;;;16.34;31.21;102277.25;5970902;29;20067;-71
2022/03/24 11:42:09;;;;;;;28.57;11.20;;;;;;;16.47;31.01;102282.31;5979196;28;20035;-72
2022/03/24 11:45:36;;;;;;;26.90;11.48;;;;;;;17.08;31.57;102271.91;5968293;29;20110;-73
2022/03/24 11:48:34;;;;;;;28.92;12.70;;;;;;;16.90;31.50;102271.00;5975893;29;20099;-73
2022/03/24 11:51:31;;;;;;;26.67;12.02;;;;;;;16.67;30.88;102268.72;5971245;29;20036;-73
2022/03/24 11:54:32;;;;;;;24.50;11.48;;;;;;;16.62;31.18;102265.66;5979906;28;20069;-72
2022/03/24 11:57:33;;;;;;;26.38;10.68;;;;;;;16.59;31.42;102255.22;5979256;28;20407;-74
2022/03/24 12:00:28;;;;;;;25.60;11.95;;;;;;;16.05;31.25;102261.25;5972736;29;20488;-73
2022/03/24 12:03:41;;;;;;;28.20;10.63;;;;;;;16.22;31.26;102259.69;5971661;28;20043;-74
2022/03/24 12:06:43;;;;;;;26.75;11.35;;;;;;;16.48;31.28;102251.84;5971974;28;20043;-72
2022/03/24 12:09:53;;;;;;;28.00;11.80;;;;;;;16.90;30.88;102246.91;5972807;29;20036;-73
2022/03/24 12:13:19;;;;;;;26.15;11.02;;;;;;;16.59;30.50;102243.66;5974635;29;20058;-70
2022/03/24 12:16:21;;;;;;;27.77;10.85;;;;;;;16.90;31.08;102246.91;5965004;29;20036;-69
2022/03/24 12:19:47;;;;;;;26.30;10.60;;;;;;;17.03;30.47;102242.88;5969109;29;20111;-73
2022/03/24 12:22:43;;;;;;;22.45;9.73;;;;;;;17.29;29.39;102234.91;5968764;29;20051;-74
2022/03/24 12:25:39;;;;;;;23.05;9.90;;;;;;;17.31;28.72;102224.91;5961900;29;20032;-71
2022/03/24 12:28:37;;;;;;;23.75;9.55;;;;;;;16.91;30.01;102227.13;5967959;29;20482;-72
2022/03/24 12:32:00;;;;;;;24.02;9.70;;;;;;;16.57;29.90;102235.78;5973983;28;20046;-71
2022/03/24 12:34:55;;;;;;;25.75;10.40;;;;;;;17.00;29.64;102219.03;5967977;29;20086;-72
2022/03/24 12:37:51;;;;;;;29.37;9.73;;;;;;;16.87;29.03;102220.41;5969265;29;20044;-74
2022/03/24 12:41:11;;;;;;;21.38;9.35;;;;;;;16.92;29.42;102218.09;5979126;28;20427;-72
2022/03/24 12:44:06;;;;;;;;;;;;;;;17.16;29.04;102226.41;5974131;29;20483;-73
2022/03/24 12:47:02;;;;;;;21.50;9.52;;;;;;;17.36;29.07;102211.03;5985117;28;19918;-71
2022/03/24 12:49:58;;;;;;;23.67;9.68;;;;;;;17.26;28.64;102211.09;5963880;29;20039;-74
2022/03/24 12:52:54;;;;;;;24.25;10.40;;;;;;;17.10;28.73;102213.59;5975601;29;20506;-72
2022/03/24 12:55:50;;;;;;;25.02;10.10;;;;;;;17.56;28.98;102208.06;5974943;29;20046;-72
2022/03/24 12:58:51;;;;;;;21.70;9.50;;;;;;;17.47;28.74;102208.97;5981857;29;20039;-71
2022/03/24 13:01:47;;;;;;;21.40;8.65;;;;;;;17.37;28.82;102202.81;5969077;29;20086;-71
2022/03/24 13:04:47;;;;;;;23.48;9.45;;;;;;;17.53;28.25;102205.66;5985003;28;20101;-74
2022/03/24 13:07:48;;;;;;;31.50;10.85;;;;;;;17.51;28.92;102199.59;5975067;28;20027;-71
2022/03/24 13:10:54;;;;;;;25.00;9.50;;;;;;;17.56;28.99;102200.00;5978874;28;20071;-72
2022/03/24 13:13:55;;;;;;;;;;;;;;;17.53;29.00;102208.34;5975058;29;20130;-73
2022/03/24 13:17:07;;;;;;;20.90;9.23;;;;;;;17.15;28.99;102208.63;5981214;29;19914;-73
2022/03/24 13:20:04;;;;;;;20.55;7.65;;;;;;;17.36;29.68;102195.78;5975429;29;20394;-71
2022/03/24 13:23:04;;;;;;;18.60;8.00;;;;;;;17.74;28.71;102192.78;5980485;28;20032;-74
2022/03/24 13:26:03;;;;;;;21.48;7.88;;;;;;;17.31;29.18;102179.31;5974693;29;20379;-71
2022/03/24 13:28:58;;;;;;;21.50;8.13;;;;;;;17.34;29.19;102178.16;5971955;29;20043;-73
2022/03/24 13:32:07;;;;;;;18.73;7.10;;;;;;;17.32;29.06;102175.63;5975712;29;20039;-71
2022/03/24 13:35:08;;;;;;;19.95;7.28;;;;;;;17.84;28.86;102177.41;5963558;29;20298;-71